Aeroporto :
LOGIN :

Iscrizione | Disclaimer

   EN    FR    IT 

 










Sommario :    VFR   VFR Marginale   IFR   IFR Intensivo   IFR Molto Intensivo
Visibilità : 
Base nubi : 
>= 8 km
>= 3000ft
5 / 8 km
1000 / 3000 ft
1500m / 5 km
500 / 1000 ft
800 / 1500m
200 / 500 ft
< 800m
< 200 ft
Simboli :   Temporali  Nebbia  Neve Forte  Precipitazioni Forti  Vento > 20 kt
SIGMETs :   Varie  Temporali  Ghiacco  Turbolenza  Onda orograficha  Ceneri Vulcaniche






- Altitudine del aeroporto : 400 ft
- Codice IATA : BNX


LQBK - Banja Luka

ULTIMO METAR :
  • 020930Z 07006KT 7000 SCT010 BKN017 OVC030 M00/M02 Q1020 NOSIG

METARs OBSOLETI :
  • 020900Z 06006KT 7000 SCT010 BKN017 OVC030 M00/M02 Q1020 NOSIG
  • 020830Z 07005KT 6000 SCT013 OVC017 M01/M01 Q1020 NOSIG
  • 020800Z 07006KT 6000 SCT010 OVC017 M01/M01 Q1020 NOSIG
  • 020730Z 08005KT 6000 BKN010 OVC015 M00/M02 Q1020 NOSIG
  • 020700Z 05003KT 6000 BKN010 OVC015 M00/M02 Q1020 NOSIG

TAF TAF LQBK
Valido dal 02 a 06 ore il 03 a 06 ore UTC


020500Z 0206/0306 06005KT 7000 BKN015 OVC040 TX01/0213Z TNM01/0206Z
TEMPO 0206/0210 2000 BR OVC005
TEMPO 0210/0218 3000 -SN BR BKN010 OVC030
PROB40
TEMPO 0212/0218 3000 -FZRA BR
PROB40
TEMPO 0302/0306 2000 -FZRA BR



MetMap, La meteo Aeronautica in un colpo d'occhio ! - Copyright ORBIFLY Dicembre 2007 - Disclaimer

ORBIFLY MET'MAP TEAM :

Programmazione e sviluppo : Alexandra Zaïnal
Concezione : Baudouin d'Aumeries
Aiuto per la programmazione : Marc-Olivier Méhu
Supporto tecnico e logistico : Manuel Goepfert
Aiuto per la traduzione : Arnaldo La Scala

Contatto : metmap@orbifly.com




FONTI E CREDITI :

   NOAA